createdAt,value
2023-02-25T00:13:18.285Z,0.01
2023-02-25T00:27:25.991Z,0
2023-02-25T00:42:26.207Z,0
2023-02-25T00:57:25.616Z,0.01
2023-02-25T01:12:25.796Z,0
2023-02-25T01:27:26.089Z,0.1
2023-02-25T01:42:25.320Z,0.02
2023-02-25T01:57:25.458Z,0.05
2023-02-25T02:12:26.336Z,0
2023-02-25T02:57:25.824Z,0
2023-02-25T03:12:26.989Z,0
2023-02-25T03:27:25.712Z,0
2023-02-25T03:42:28.278Z,0.15
2023-02-25T03:57:26.743Z,0.02
2023-02-25T04:12:26.237Z,0
2023-02-25T04:27:26.153Z,5.41
2023-02-25T04:57:26.101Z,14.69
2023-02-25T05:12:26.062Z,12.1
2023-02-25T05:27:25.501Z,7.9
2023-02-25T05:42:26.013Z,3.24
2023-02-25T05:57:25.493Z,1.7
2023-02-25T06:12:25.989Z,1.93
2023-02-25T06:27:25.542Z,0.65
2023-02-25T06:42:26.201Z,0.9
2023-02-25T06:57:25.669Z,1.45
2023-02-25T07:12:26.150Z,2.8
2023-02-25T07:27:25.718Z,3.51
2023-02-25T07:42:25.972Z,3.63
2023-02-25T07:57:26.132Z,3.91
2023-02-25T08:12:25.518Z,3.88
2023-02-25T08:27:26.039Z,18.05
2023-02-25T08:42:25.581Z,9.43
2023-02-25T08:57:26.167Z,6.09
2023-02-25T09:27:26.090Z,14.14
2023-02-25T09:42:25.704Z,32.96
2023-02-25T09:57:26.028Z,18.64
2023-02-25T10:27:26.216Z,20.05
2023-02-25T10:42:26.322Z,10.03
2023-02-25T10:57:28.338Z,8.19
2023-02-25T11:12:25.599Z,17.54
2023-02-25T11:27:26.563Z,16.84
2023-02-25T11:42:25.592Z,8.22
2023-02-25T11:57:26.097Z,6.33
2023-02-25T12:12:25.735Z,4.53
2023-02-25T12:27:26.104Z,5.72
2023-02-25T12:42:26.365Z,3.43
2023-02-25T12:57:25.625Z,3.79
2023-02-25T13:12:25.708Z,2.83
2023-02-25T13:27:25.465Z,3.96
2023-02-25T13:42:25.715Z,3.34
2023-02-25T13:57:25.653Z,5.97
2023-02-25T14:12:25.925Z,7.17
2023-02-25T14:27:25.793Z,5.48
2023-02-25T14:42:25.543Z,4.74
2023-02-25T14:57:25.840Z,6.24
2023-02-25T15:12:25.362Z,10.86
2023-02-25T15:27:26.192Z,6.99
2023-02-25T15:42:26.160Z,6.59
2023-02-25T15:57:26.660Z,10.29
2023-02-25T16:12:26.341Z,6.66
2023-02-25T16:27:25.579Z,7.28
2023-02-25T16:42:26.010Z,5.09
2023-02-25T16:57:25.745Z,5.41
2023-02-25T17:12:25.905Z,9.08
2023-02-25T17:27:26.207Z,5.83
2023-02-25T17:42:25.877Z,14.8
2023-02-25T17:57:25.713Z,7.11
2023-02-25T18:12:26.050Z,5.59
2023-02-25T18:27:26.062Z,5.25
2023-02-25T18:42:25.267Z,5.56
2023-02-25T18:57:25.381Z,5.15
2023-02-25T19:12:26.285Z,3.73
2023-02-25T19:27:25.202Z,3.69
2023-02-25T19:42:26.131Z,3.04
2023-02-25T19:57:26.331Z,2.62
2023-02-25T20:12:26.127Z,3.21
2023-02-25T20:27:25.825Z,5.29
2023-02-25T20:42:30.590Z,2.47
2023-02-25T20:57:25.706Z,2.81
2023-02-25T21:12:45.050Z,5.25
2023-02-25T21:27:25.429Z,5.39
2023-02-25T21:42:25.289Z,4.94
2023-02-25T21:57:26.065Z,4.35
2023-02-25T22:12:25.885Z,3.42
2023-02-25T22:27:25.222Z,5.34
2023-02-25T22:42:25.994Z,2.03
2023-02-25T22:57:26.098Z,1.8
2023-02-25T23:12:30.933Z,3.53
2023-02-25T23:27:26.062Z,4.85
2023-02-25T23:42:25.766Z,3.39
2023-02-25T23:57:25.241Z,0.83
